createdAt,value
2016-05-17T00:00:09.109Z,38.18
2016-05-17T00:01:09.175Z,38.09
2016-05-17T00:02:09.225Z,38.09
2016-05-17T00:03:09.258Z,38.09
2016-05-17T00:04:09.323Z,38.18
2016-05-17T00:05:09.372Z,38.09
2016-05-17T00:06:09.406Z,38.09
2016-05-17T00:07:09.472Z,37.99
2016-05-17T00:08:09.505Z,38.18
2016-05-17T00:09:09.571Z,37.8
2016-05-17T00:10:09.605Z,37.9
2016-05-17T00:11:09.655Z,37.9
2016-05-17T00:12:09.705Z,37.9
2016-05-17T00:13:09.769Z,38.09
2016-05-17T00:14:09.803Z,37.99
2016-05-17T00:15:09.868Z,38.18
2016-05-17T00:16:09.918Z,38.09
2016-05-17T00:17:09.968Z,38.09
2016-05-17T00:18:10.017Z,37.8
2016-05-17T00:19:10.067Z,38.09
2016-05-17T00:20:10.101Z,37.99
2016-05-17T00:21:10.166Z,38.28
2016-05-17T00:22:10.216Z,38.18
2016-05-17T00:23:10.265Z,38.18
2016-05-17T00:24:10.315Z,38.09
2016-05-17T00:25:10.348Z,38.18
2016-05-17T00:26:10.414Z,38.28
2016-05-17T00:27:10.448Z,38.28
2016-05-17T00:28:10.513Z,38.18
2016-05-17T00:29:10.562Z,38.28
2016-05-17T00:30:10.612Z,38.47
2016-05-17T00:31:10.645Z,38.56
2016-05-17T00:32:10.681Z,38.47
2016-05-17T00:33:10.729Z,38.37
2016-05-17T00:34:10.778Z,38.56
2016-05-17T00:35:10.844Z,38.47
2016-05-17T00:36:10.894Z,38.47
2016-05-17T00:37:10.944Z,38.47
2016-05-17T00:38:10.993Z,38.47
2016-05-17T00:39:11.058Z,38.66
2016-05-17T00:40:11.092Z,38.85
2016-05-17T00:41:11.157Z,38.85
2016-05-17T00:42:11.191Z,38.95
2016-05-17T00:43:11.225Z,38.66
2016-05-17T00:44:11.291Z,38.85
2016-05-17T00:45:11.341Z,38.95
2016-05-17T00:46:11.389Z,38.95
2016-05-17T00:47:11.424Z,38.85
2016-05-17T00:48:11.489Z,38.76
2016-05-17T00:49:11.382Z,38.76
2016-05-17T00:50:11.587Z,38.95
2016-05-17T00:51:11.637Z,38.95
2016-05-17T00:52:11.624Z,38.66
2016-05-17T00:53:11.737Z,38.66
2016-05-17T00:54:11.785Z,38.47
2016-05-17T00:55:11.835Z,38.85
2016-05-17T00:56:11.870Z,38.76
2016-05-17T00:57:11.918Z,38.66
2016-05-17T00:58:11.968Z,38.66
2016-05-17T00:59:12.034Z,38.76
2016-05-17T01:00:11.927Z,38.95
2016-05-17T01:01:12.134Z,38.95
2016-05-17T01:02:12.182Z,38.95
2016-05-17T01:03:12.232Z,39.14
2016-05-17T01:04:12.281Z,39.14
2016-05-17T01:05:12.175Z,39.14
2016-05-17T01:06:12.224Z,39.43
2016-05-17T01:07:12.431Z,38.76
2016-05-17T01:08:12.464Z,38.76
2016-05-17T01:09:12.530Z,38.66
2016-05-17T01:10:12.564Z,39.14
2016-05-17T01:11:12.628Z,39.14
2016-05-17T01:12:12.694Z,38.76
2016-05-17T01:13:12.712Z,39.14
2016-05-17T01:14:12.636Z,39.14
2016-05-17T01:15:12.811Z,38.95
2016-05-17T01:16:12.861Z,39.14
2016-05-17T01:17:12.911Z,39.23
2016-05-17T01:18:12.960Z,39.23
2016-05-17T01:19:13.025Z,39.23
2016-05-17T01:20:13.060Z,39.14
2016-05-17T01:21:13.108Z,39.43
2016-05-17T01:22:13.143Z,39.43
2016-05-17T01:23:13.223Z,39.52
2016-05-17T01:24:13.257Z,39.52
2016-05-17T01:25:13.323Z,39.23
2016-05-17T01:26:13.372Z,39.23
2016-05-17T01:27:13.406Z,39.23
2016-05-17T01:28:13.456Z,39.43
2016-05-17T01:29:13.520Z,39.43
2016-05-17T01:30:13.554Z,39.23
2016-05-17T01:31:13.604Z,39.52
2016-05-17T01:32:13.669Z,39.52
2016-05-17T01:33:13.704Z,39.33
2016-05-17T01:34:13.753Z,38.95
2016-05-17T01:35:13.818Z,39.23
2016-05-17T01:36:13.853Z,39.43
2016-05-17T01:37:13.745Z,39.52
2016-05-17T01:38:13.779Z,39.52
2016-05-17T01:39:14.000Z,39.43
2016-05-17T01:40:14.050Z,39.72
2016-05-17T01:41:14.100Z,39.72
2016-05-17T01:42:14.165Z,39.52
2016-05-17T01:43:14.199Z,39.52
2016-05-17T01:44:14.249Z,39.23
2016-05-17T01:45:14.157Z,39.52
2016-05-17T01:46:14.347Z,39.43
2016-05-17T01:47:14.397Z,39.62
2016-05-17T01:48:14.446Z,39.72
2016-05-17T01:49:14.497Z,39.81
2016-05-17T01:50:14.546Z,39.9
2016-05-17T01:51:14.596Z,39.33
2016-05-17T01:52:14.896Z,39.23
2016-05-17T01:53:14.694Z,39.81
2016-05-17T01:54:14.744Z,39.72
2016-05-17T01:55:14.793Z,39.62
2016-05-17T01:56:14.843Z,39.62
2016-05-17T01:57:14.893Z,39.43
2016-05-17T01:58:14.943Z,39.62
2016-05-17T01:59:14.992Z,39.52
2016-05-17T02:00:15.057Z,39.52
2016-05-17T02:01:15.076Z,39.62
2016-05-17T02:02:15.140Z,39.81
2016-05-17T02:03:15.175Z,39.52
2016-05-17T02:04:15.223Z,39.72
2016-05-17T02:05:15.118Z,39.33
2016-05-17T02:06:15.339Z,39.43
2016-05-17T02:07:15.561Z,39.43
2016-05-17T02:08:15.439Z,39.62
2016-05-17T02:09:15.472Z,39.62
2016-05-17T02:10:15.522Z,39.62
2016-05-17T02:11:15.415Z,40
2016-05-17T02:12:15.636Z,39.52
2016-05-17T02:13:15.670Z,39.81
2016-05-17T02:14:15.564Z,39.72
2016-05-17T02:15:15.769Z,39.81
2016-05-17T02:16:15.819Z,39.43
2016-05-17T02:17:15.713Z,39.43
2016-05-17T02:18:15.746Z,39.43
2016-05-17T02:19:15.969Z,39.52
2016-05-17T02:20:16.016Z,39.33
2016-05-17T02:21:16.066Z,39.43
2016-05-17T02:22:16.413Z,39.72
2016-05-17T02:23:16.182Z,39.9
2016-05-17T02:24:16.091Z,39.72
2016-05-17T02:25:16.280Z,39.9
2016-05-17T02:26:16.330Z,39.52
2016-05-17T02:27:16.365Z,39.62
2016-05-17T02:28:16.413Z,39.43
2016-05-17T02:29:16.463Z,39.9
2016-05-17T02:30:16.513Z,39.62
2016-05-17T02:31:16.563Z,39.33
2016-05-17T02:32:16.612Z,39.33
2016-05-17T02:33:16.646Z,39.33
2016-05-17T02:34:16.554Z,39.52
2016-05-17T02:35:16.870Z,39.81
2016-05-17T02:36:16.794Z,39.81
2016-05-17T02:37:16.923Z,39.43
2016-05-17T02:38:16.769Z,39.43
2016-05-17T02:39:16.787Z,39.43
2016-05-17T02:40:16.837Z,39.62
2016-05-17T02:41:17.105Z,39.52
2016-05-17T02:42:16.936Z,39.43
2016-05-17T02:43:17.157Z,39.62
2016-05-17T02:44:17.175Z,39.43
2016-05-17T02:45:17.084Z,39.81
2016-05-17T02:46:17.291Z,39.9
2016-05-17T02:47:17.340Z,39.62
2016-05-17T02:48:17.389Z,39.62
2016-05-17T02:49:17.454Z,39.43
2016-05-17T02:50:17.332Z,39.52
2016-05-17T02:51:17.555Z,39.52
2016-05-17T02:52:17.682Z,39.33
2016-05-17T02:53:17.481Z,39.52
2016-05-17T02:54:17.687Z,39.52
2016-05-17T02:55:17.736Z,39.9
2016-05-17T02:56:17.802Z,39.81
2016-05-17T02:57:17.695Z,39.72
2016-05-17T02:58:17.885Z,39.81
2016-05-17T02:59:17.935Z,39.72
2016-05-17T03:00:18.000Z,39.72
2016-05-17T03:01:18.034Z,39.9
2016-05-17T03:02:18.084Z,39.72
2016-05-17T03:03:18.132Z,40
2016-05-17T03:04:18.182Z,39.81
2016-05-17T03:05:18.217Z,39.52
2016-05-17T03:06:18.281Z,39.72
2016-05-17T03:07:18.175Z,39.33
2016-05-17T03:08:18.365Z,39.72
2016-05-17T03:09:18.430Z,39.43
2016-05-17T03:10:18.511Z,39.52
2016-05-17T03:11:18.514Z,39.9
2016-05-17T03:12:18.564Z,39.72
2016-05-17T03:13:18.628Z,39.52
2016-05-17T03:14:18.678Z,39.81
2016-05-17T03:15:18.711Z,39.81
2016-05-17T03:16:18.778Z,39.9
2016-05-17T03:17:18.827Z,40
2016-05-17T03:18:18.861Z,40.09
2016-05-17T03:19:18.926Z,39.43
2016-05-17T03:20:18.975Z,39.52
2016-05-17T03:21:19.180Z,39.52
2016-05-17T03:22:19.074Z,39.81
2016-05-17T03:23:19.108Z,39.62
2016-05-17T03:24:19.002Z,39.81
2016-05-17T03:25:19.207Z,39.72
2016-05-17T03:26:19.351Z,39.62
2016-05-17T03:27:19.322Z,39.72
2016-05-17T03:28:19.357Z,39.43
2016-05-17T03:29:19.234Z,39.52
2016-05-17T03:30:19.502Z,39.33
2016-05-17T03:31:19.536Z,39.52
2016-05-17T03:32:19.540Z,39.43
2016-05-17T03:33:19.605Z,39.62
2016-05-17T03:34:19.654Z,39.52
2016-05-17T03:35:19.704Z,39.52
2016-05-17T03:36:19.987Z,39.33
2016-05-17T03:37:19.818Z,39.52
2016-05-17T03:38:19.867Z,39.72
2016-05-17T03:39:19.902Z,39.72
2016-05-17T03:40:19.967Z,39.62
2016-05-17T03:41:20.001Z,39.62
2016-05-17T03:42:19.894Z,39.81
2016-05-17T03:43:20.100Z,39.81
2016-05-17T03:44:19.993Z,39.43
2016-05-17T03:45:20.214Z,39.52
2016-05-17T03:46:20.248Z,39.81
2016-05-17T03:47:20.297Z,39.81
2016-05-17T03:48:20.364Z,39.72
2016-05-17T03:49:20.397Z,39.62
2016-05-17T03:50:20.446Z,40
2016-05-17T03:51:20.497Z,40
2016-05-17T03:52:20.546Z,39.52
2016-05-17T03:53:20.596Z,39.9
2016-05-17T03:54:20.644Z,40.09
2016-05-17T03:55:20.694Z,39.72
2016-05-17T03:56:20.729Z,39.9
2016-05-17T03:57:20.778Z,39.81
2016-05-17T03:58:20.687Z,39.62
2016-05-17T03:59:20.893Z,39.81
2016-05-17T04:00:20.943Z,40
2016-05-17T04:01:20.992Z,40.19
2016-05-17T04:02:21.041Z,40.09
2016-05-17T04:03:21.075Z,39.81
2016-05-17T04:04:21.001Z,40.09
2016-05-17T04:05:21.175Z,39.52
2016-05-17T04:06:21.068Z,39.72
2016-05-17T04:07:21.118Z,40.29
2016-05-17T04:08:21.323Z,39.81
2016-05-17T04:09:21.232Z,39.81
2016-05-17T04:10:21.437Z,39.62
2016-05-17T04:11:21.487Z,39.52
2016-05-17T04:12:21.537Z,40.38
2016-05-17T04:13:21.400Z,39.81
2016-05-17T04:14:21.620Z,40.19
2016-05-17T04:15:21.670Z,39.81
2016-05-17T04:16:21.564Z,39.62
2016-05-17T04:17:21.753Z,40.09
2016-05-17T04:18:21.819Z,39.9
2016-05-17T04:19:21.883Z,39.9
2016-05-17T04:20:21.762Z,39.81
2016-05-17T04:21:21.968Z,40.09
2016-05-17T04:22:22.017Z,40.09
2016-05-17T04:23:22.067Z,40.19
2016-05-17T04:24:22.116Z,40.19
2016-05-17T04:25:22.182Z,40.48
2016-05-17T04:26:22.215Z,40.38
2016-05-17T04:27:22.265Z,40.19
2016-05-17T04:28:22.315Z,40.67
2016-05-17T04:29:22.208Z,40.48
2016-05-17T04:30:22.398Z,40.38
2016-05-17T04:31:22.463Z,40.48
2016-05-17T04:32:22.513Z,40.58
2016-05-17T04:33:22.562Z,40.48
2016-05-17T04:34:22.596Z,40.67
2016-05-17T04:35:22.661Z,40.48
2016-05-17T04:36:22.727Z,40.58
2016-05-17T04:37:22.761Z,40.48
2016-05-17T04:38:22.810Z,40.58
2016-05-17T04:39:22.860Z,40.67
2016-05-17T04:40:22.909Z,40.38
2016-05-17T04:41:22.943Z,40.67
2016-05-17T04:42:23.055Z,40.48
2016-05-17T04:43:23.058Z,40.26
2016-05-17T04:44:22.936Z,40.58
2016-05-17T04:45:23.157Z,40.67
2016-05-17T04:46:23.207Z,40.48
2016-05-17T04:47:23.241Z,40.48
2016-05-17T04:48:23.290Z,40.48
2016-05-17T04:49:23.339Z,40.58
2016-05-17T04:50:23.389Z,40.67
2016-05-17T04:51:23.438Z,40.67
2016-05-17T04:52:23.348Z,40.38
2016-05-17T04:53:23.539Z,40.48
2016-05-17T04:54:23.588Z,40.58
2016-05-17T04:55:23.481Z,40.58
2016-05-17T04:56:23.686Z,40.29
2016-05-17T04:57:23.580Z,40.58
2016-05-17T04:58:23.786Z,40.48
2016-05-17T04:59:23.679Z,40.48
2016-05-17T05:00:23.713Z,40.67
2016-05-17T05:01:23.935Z,40.58
2016-05-17T05:02:24.000Z,40.55
2016-05-17T05:03:24.049Z,40.36
2016-05-17T05:04:24.083Z,40.29
2016-05-17T05:05:24.132Z,40.29
2016-05-17T05:06:24.213Z,40.19
2016-05-17T05:07:24.340Z,40.58
2016-05-17T05:08:24.281Z,40.58
2016-05-17T05:09:24.353Z,40.58
2016-05-17T05:10:24.429Z,40.67
2016-05-17T05:11:24.538Z,40.58
2016-05-17T05:12:24.614Z,40.55
2016-05-17T05:13:24.722Z,40.48
2016-05-17T05:14:24.801Z,40.36
2016-05-17T05:15:24.850Z,40.46
2016-05-17T05:16:24.932Z,40.46
2016-05-17T05:17:24.996Z,40.26
2016-05-17T05:18:25.062Z,40.26
2016-05-17T05:19:25.122Z,40.26
2016-05-17T05:20:25.192Z,40.46
2016-05-17T05:21:25.247Z,40.55
2016-05-17T05:22:25.302Z,40.84
2016-05-17T05:23:25.340Z,40.29
2016-05-17T05:24:25.410Z,40.29
2016-05-17T05:25:25.446Z,40.38
2016-05-17T05:26:25.498Z,40.38
2016-05-17T05:27:25.549Z,40.58
2016-05-17T05:28:25.616Z,40.48
2016-05-17T05:29:25.651Z,40.55
2016-05-17T05:30:25.701Z,40.67
2016-05-17T05:31:25.751Z,40.67
2016-05-17T05:32:25.802Z,40.48
2016-05-17T05:33:25.837Z,40.38
2016-05-17T05:34:25.902Z,40.29
2016-05-17T05:35:25.781Z,40.09
2016-05-17T05:36:25.831Z,40.09
2016-05-17T05:37:26.318Z,40.38
2016-05-17T05:38:26.087Z,40.67
2016-05-17T05:39:26.136Z,40.58
2016-05-17T05:40:26.201Z,40.58
2016-05-17T05:41:26.235Z,40.67
2016-05-17T05:42:26.301Z,40.38
2016-05-17T05:43:26.335Z,40.26
2016-05-17T05:44:26.384Z,40.26
2016-05-17T05:45:26.465Z,40.38
2016-05-17T05:46:26.484Z,40.48
2016-05-17T05:47:26.532Z,40.55
2016-05-17T05:48:26.583Z,40.29
2016-05-17T05:49:26.662Z,40.46
2016-05-17T05:50:26.665Z,40.65
2016-05-17T05:51:27.028Z,40.58
2016-05-17T05:52:26.781Z,40.36
2016-05-17T05:53:26.831Z,40.58
2016-05-17T05:54:26.881Z,40.38
2016-05-17T05:55:26.914Z,40.58
2016-05-17T05:56:26.995Z,40.55
2016-05-17T05:57:27.014Z,40.65
2016-05-17T05:58:27.062Z,40.58
2016-05-17T05:59:27.128Z,40.48
2016-05-17T06:00:27.162Z,40.58
2016-05-17T06:01:27.227Z,40.29
2016-05-17T06:02:27.261Z,40.38
2016-05-17T06:03:27.311Z,40.38
2016-05-17T06:04:27.360Z,40.67
2016-05-17T06:05:27.425Z,40.67
2016-05-17T06:06:27.365Z,40.58
2016-05-17T06:07:27.524Z,40.48
2016-05-17T06:08:27.605Z,40.29
2016-05-17T06:09:27.624Z,40.84
2016-05-17T06:10:27.657Z,40.17
2016-05-17T06:11:27.722Z,40.36
2016-05-17T06:12:27.771Z,40.46
2016-05-17T06:13:27.821Z,40.26
2016-05-17T06:14:27.855Z,40
2016-05-17T06:15:27.905Z,40.09
2016-05-17T06:16:27.798Z,40.48
2016-05-17T06:17:28.004Z,40.38
2016-05-17T06:18:28.070Z,40.29
2016-05-17T06:19:28.103Z,40.36
2016-05-17T06:20:28.154Z,40.58
2016-05-17T06:21:28.203Z,40.48
2016-05-17T06:22:28.095Z,40.29
2016-05-17T06:23:28.301Z,40.48
2016-05-17T06:24:28.351Z,40.46
2016-05-17T06:25:28.385Z,40.55
2016-05-17T06:26:28.435Z,40.46
2016-05-17T06:27:28.345Z,40.46
2016-05-17T06:28:28.549Z,40.84
2016-05-17T06:29:28.600Z,40.17
2016-05-17T06:30:28.648Z,40.46
2016-05-17T06:31:28.526Z,40.38
2016-05-17T06:32:28.608Z,40.65
2016-05-17T06:33:28.814Z,40.55
2016-05-17T06:34:28.847Z,40.38
2016-05-17T06:35:28.881Z,40.19
2016-05-17T06:36:29.119Z,40.67
2016-05-17T06:37:29.324Z,40.55
2016-05-17T06:38:29.030Z,40.55
2016-05-17T06:39:29.094Z,40.55
2016-05-17T06:40:29.129Z,40.55
2016-05-17T06:41:29.178Z,40.36
2016-05-17T06:42:29.244Z,40.55
2016-05-17T06:43:29.293Z,40.58
2016-05-17T06:44:29.327Z,40.75
2016-05-17T06:45:29.393Z,40.36
2016-05-17T06:46:29.426Z,40.55
2016-05-17T06:47:29.491Z,40.55
2016-05-17T06:48:29.525Z,40.48
2016-05-17T06:49:29.574Z,40.36
2016-05-17T06:50:29.624Z,40.46
2016-05-17T06:51:29.705Z,40.67
2016-05-17T06:52:29.786Z,40.55
2016-05-17T06:53:29.617Z,40.17
2016-05-17T06:54:29.838Z,40.17
2016-05-17T06:55:29.887Z,40.26
2016-05-17T06:56:29.922Z,40.38
2016-05-17T06:57:29.986Z,40.84
2016-05-17T06:58:30.021Z,40.75
2016-05-17T06:59:30.070Z,40.65
2016-05-17T07:00:30.120Z,40.75
2016-05-17T07:01:30.185Z,40.75
2016-05-17T07:02:30.234Z,40.77
2016-05-17T07:03:30.284Z,40.75
2016-05-17T07:04:30.302Z,40.94
2016-05-17T07:05:30.680Z,40.94
2016-05-17T07:06:30.839Z,40.75
2016-05-17T07:07:30.467Z,41.03
2016-05-17T07:08:30.516Z,41.03
2016-05-17T07:09:30.410Z,40.75
2016-05-17T07:10:30.630Z,40.94
2016-05-17T07:11:30.665Z,40.75
2016-05-17T07:12:30.543Z,40.58
2016-05-17T07:13:30.764Z,40.84
2016-05-17T07:14:30.813Z,40.84
2016-05-17T07:15:30.863Z,40.94
2016-05-17T07:16:30.897Z,41.32
2016-05-17T07:17:30.963Z,40.65
2016-05-17T07:18:31.012Z,41.03
2016-05-17T07:19:31.046Z,40.65
2016-05-17T07:20:31.126Z,40.75
2016-05-17T07:21:31.817Z,40.84
2016-05-17T07:22:31.226Z,41.24
2016-05-17T07:23:31.244Z,41.03
2016-05-17T07:24:31.154Z,41.03
2016-05-17T07:25:31.343Z,41.03
2016-05-17T07:26:31.393Z,41.22
2016-05-17T07:27:31.443Z,41.03
2016-05-17T07:28:31.492Z,41.13
2016-05-17T07:29:31.542Z,40.94
2016-05-17T07:30:31.591Z,41.03
2016-05-17T07:31:31.641Z,40.94
2016-05-17T07:32:31.690Z,41.03
2016-05-17T07:33:31.740Z,41.13
2016-05-17T07:34:31.649Z,40.95
2016-05-17T07:35:31.839Z,41.13
2016-05-17T07:36:32.467Z,40.94
2016-05-17T07:37:31.938Z,41.13
2016-05-17T07:38:31.988Z,41.32
2016-05-17T07:39:32.038Z,41.32
2016-05-17T07:40:32.102Z,41.22
2016-05-17T07:41:32.136Z,41.41
2016-05-17T07:42:32.202Z,40.94
2016-05-17T07:43:32.235Z,40.84
2016-05-17T07:44:32.285Z,40.84
2016-05-17T07:45:32.334Z,40.84
2016-05-17T07:46:32.385Z,41.13
2016-05-17T07:47:32.435Z,40.55
2016-05-17T07:48:32.483Z,40.65
2016-05-17T07:49:32.533Z,40.84
2016-05-17T07:50:32.567Z,40.46
2016-05-17T07:51:33.304Z,41.03
2016-05-17T07:52:32.526Z,40.94
2016-05-17T07:53:32.715Z,40.94
2016-05-17T07:54:32.765Z,41.05
2016-05-17T07:55:32.830Z,40.36
2016-05-17T07:56:32.880Z,40.75
2016-05-17T07:57:32.929Z,40.65
2016-05-17T07:58:32.979Z,40.84
2016-05-17T07:59:33.029Z,41.03
2016-05-17T08:00:33.078Z,40.75
2016-05-17T08:01:33.112Z,40.77
2016-05-17T08:02:33.162Z,40.55
2016-05-17T08:03:33.242Z,40.65
2016-05-17T08:04:33.261Z,40.26
2016-05-17T08:05:33.325Z,40.26
2016-05-17T08:06:33.861Z,40.55
2016-05-17T08:07:33.300Z,40.65
2016-05-17T08:08:33.474Z,40.84
2016-05-17T08:09:33.509Z,41.03
2016-05-17T08:10:33.574Z,40.77
2016-05-17T08:11:33.452Z,40.65
2016-05-17T08:12:33.517Z,40.65
2016-05-17T08:13:33.722Z,40.84
2016-05-17T08:14:33.757Z,40.46
2016-05-17T08:15:33.805Z,40.26
2016-05-17T08:16:33.699Z,40.26
2016-05-17T08:17:33.890Z,40.46
2016-05-17T08:18:33.782Z,40.26
2016-05-17T08:19:34.020Z,40.38
2016-05-17T08:20:33.882Z,40.29
2016-05-17T08:21:33.946Z,40.46
2016-05-17T08:22:34.200Z,40.46
2016-05-17T08:23:34.202Z,40.38
2016-05-17T08:24:34.252Z,40.26
2016-05-17T08:25:34.317Z,40.29
2016-05-17T08:26:34.195Z,40.36
2016-05-17T08:27:34.245Z,40.77
2016-05-17T08:28:34.450Z,40.55
2016-05-17T08:29:34.500Z,40.46
2016-05-17T08:30:34.550Z,40.36
2016-05-17T08:31:34.428Z,40.55
2016-05-17T08:32:34.648Z,40.55
2016-05-17T08:33:34.683Z,40.17
2016-05-17T08:34:34.732Z,40.65
2016-05-17T08:35:34.798Z,40.55
2016-05-17T08:36:35.409Z,40.58
2016-05-17T08:37:34.881Z,40.38
2016-05-17T08:38:34.947Z,40.17
2016-05-17T08:39:34.980Z,40.08
2016-05-17T08:40:35.045Z,40.08
2016-05-17T08:41:35.095Z,39.79
2016-05-17T08:42:34.972Z,39.69
2016-05-17T08:43:35.178Z,39.69
2016-05-17T08:44:35.243Z,39.81
2016-05-17T08:45:35.277Z,39.69
2016-05-17T08:46:35.327Z,40.17
2016-05-17T08:47:35.392Z,40.09
2016-05-17T08:48:35.426Z,40.08
2016-05-17T08:49:35.319Z,40.46
2016-05-17T08:50:35.540Z,40.08
2016-05-17T08:51:35.684Z,40.17
2016-05-17T08:52:35.484Z,40.08
2016-05-17T08:53:35.674Z,39.79
2016-05-17T08:54:35.724Z,39.6
2016-05-17T08:55:35.788Z,39.79
2016-05-17T08:56:35.823Z,40.17
2016-05-17T08:57:35.857Z,39.81
2016-05-17T08:58:35.906Z,39.89
2016-05-17T08:59:35.987Z,40.09
2016-05-17T09:00:36.006Z,39.69
2016-05-17T09:01:36.070Z,39.6
2016-05-17T09:02:36.120Z,39.6
2016-05-17T09:03:36.169Z,39.69
2016-05-17T09:04:36.234Z,40.08
2016-05-17T09:05:36.112Z,39.89
2016-05-17T09:06:36.317Z,39.79
2016-05-17T09:07:36.211Z,40.09
2016-05-17T09:08:36.261Z,39.89
2016-05-17T09:09:36.467Z,39.79
2016-05-17T09:10:36.501Z,39.72
2016-05-17T09:11:36.566Z,39.9
2016-05-17T09:12:36.600Z,39.79
2016-05-17T09:13:36.665Z,39.72
2016-05-17T09:14:36.700Z,39.52
2016-05-17T09:15:36.764Z,39.62
2016-05-17T09:16:36.814Z,39.72
2016-05-17T09:17:36.863Z,39.81
2016-05-17T09:18:36.757Z,39.6
2016-05-17T09:19:36.946Z,39.52
2016-05-17T09:20:36.996Z,39.79
2016-05-17T09:21:37.405Z,39.52
2016-05-17T09:22:37.143Z,39.62
2016-05-17T09:23:36.989Z,39.81
2016-05-17T09:24:37.210Z,39.52
2016-05-17T09:25:37.244Z,39.69
2016-05-17T09:26:37.138Z,39.81
2016-05-17T09:27:37.343Z,39.79
2016-05-17T09:28:37.409Z,39.81
2016-05-17T09:29:37.302Z,39.72
2016-05-17T09:30:37.492Z,39.43
2016-05-17T09:31:37.385Z,39.23
2016-05-17T09:32:37.607Z,39.79
2016-05-17T09:33:37.657Z,39.62
2016-05-17T09:34:37.675Z,39.81
2016-05-17T09:35:37.756Z,40.09
2016-05-17T09:36:37.790Z,39.52
2016-05-17T09:37:37.855Z,39.33
2016-05-17T09:38:37.889Z,39.52
2016-05-17T09:39:37.954Z,39.43
2016-05-17T09:40:37.988Z,39.81
2016-05-17T09:41:38.037Z,39.72
2016-05-17T09:42:38.119Z,39.43
2016-05-17T09:43:38.136Z,39.33
2016-05-17T09:44:38.186Z,39.43
2016-05-17T09:45:38.235Z,39.72
2016-05-17T09:46:38.285Z,39.9
2016-05-17T09:47:38.335Z,40
2016-05-17T09:48:38.368Z,39.81
2016-05-17T09:49:38.418Z,39.62
2016-05-17T09:50:38.327Z,39.9
2016-05-17T09:51:38.377Z,39.9
2016-05-17T09:52:38.583Z,39.43
2016-05-17T09:53:38.633Z,39.72
2016-05-17T09:54:38.696Z,39.62
2016-05-17T09:55:38.716Z,39.43
2016-05-17T09:56:38.782Z,39.62
2016-05-17T09:57:38.815Z,39.81
2016-05-17T09:58:38.865Z,39.81
2016-05-17T09:59:38.914Z,39.52
2016-05-17T10:00:38.963Z,39.43
2016-05-17T10:01:38.873Z,39.9
2016-05-17T10:02:39.062Z,39.52
2016-05-17T10:03:39.112Z,39.81
2016-05-17T10:04:39.006Z,39.79
2016-05-17T10:05:39.226Z,39.9
2016-05-17T10:06:39.261Z,39.9
2016-05-17T10:07:39.311Z,39.72
2016-05-17T10:08:39.376Z,39.72
2016-05-17T10:09:39.409Z,39.72
2016-05-17T10:10:39.475Z,39.72
2016-05-17T10:11:39.508Z,39.81
2016-05-17T10:12:39.543Z,39.81
2016-05-17T10:13:39.623Z,39.9
2016-05-17T10:14:39.658Z,39.43
2016-05-17T10:15:39.708Z,39.81
2016-05-17T10:16:39.631Z,39.81
2016-05-17T10:17:39.822Z,39.62
2016-05-17T10:18:39.856Z,39.81
2016-05-17T10:19:39.905Z,40.09
2016-05-17T10:20:39.971Z,39.9
2016-05-17T10:21:40.020Z,39.81
2016-05-17T10:22:40.038Z,39.62
2016-05-17T10:23:39.947Z,39.52
2016-05-17T10:24:40.152Z,39.9
2016-05-17T10:25:40.203Z,40
2016-05-17T10:26:40.252Z,40.19
2016-05-17T10:27:40.317Z,40.09
2016-05-17T10:28:40.352Z,39.81
2016-05-17T10:29:40.401Z,39.52
2016-05-17T10:30:40.465Z,40.09
2016-05-17T10:31:40.516Z,39.52
2016-05-17T10:32:40.565Z,39.72
2016-05-17T10:33:40.599Z,39.72
2016-05-17T10:34:40.649Z,39.81
2016-05-17T10:35:40.698Z,39.81
2016-05-17T10:36:40.591Z,39.81
2016-05-17T10:37:40.782Z,39.62
2016-05-17T10:38:40.862Z,40.09
2016-05-17T10:39:40.897Z,40.09
2016-05-17T10:40:40.946Z,40
2016-05-17T10:41:40.996Z,39.81
2016-05-17T10:42:41.045Z,39.62
2016-05-17T10:43:41.079Z,39.81
2016-05-17T10:44:41.145Z,39.81
2016-05-17T10:45:41.194Z,40
2016-05-17T10:46:41.228Z,39.81
2016-05-17T10:47:41.278Z,39.81
2016-05-17T10:48:41.327Z,40.19
2016-05-17T10:49:41.392Z,39.81
2016-05-17T10:50:41.442Z,39.62
2016-05-17T10:51:41.476Z,39.81
2016-05-17T10:52:41.525Z,39.72
2016-05-17T10:53:41.591Z,39.72
2016-05-17T10:54:41.624Z,39.72
2016-05-17T10:55:41.690Z,39.81
2016-05-17T10:56:41.739Z,39.72
2016-05-17T10:57:41.804Z,39.72
2016-05-17T10:58:41.838Z,39.72
2016-05-17T10:59:41.888Z,39.72
2016-05-17T11:00:41.922Z,40
2016-05-17T11:01:41.831Z,39.81
2016-05-17T11:02:42.021Z,39.9
2016-05-17T11:03:42.086Z,40.09
2016-05-17T11:04:42.120Z,39.52
2016-05-17T11:05:42.201Z,39.62
2016-05-17T11:06:42.140Z,39.62
2016-05-17T11:07:42.268Z,40
2016-05-17T11:08:42.318Z,39.9
2016-05-17T11:09:42.384Z,39.72
2016-05-17T11:10:42.401Z,39.72
2016-05-17T11:11:42.467Z,39.62
2016-05-17T11:12:42.516Z,39.62
2016-05-17T11:13:42.566Z,39.62
2016-05-17T11:14:42.616Z,39.72
2016-05-17T11:15:42.664Z,40.09
2016-05-17T11:16:42.714Z,39.62
2016-05-17T11:17:42.780Z,39.62
2016-05-17T11:18:42.814Z,39.9
2016-05-17T11:19:42.708Z,40.19
2016-05-17T11:20:42.929Z,40.19
2016-05-17T11:21:42.962Z,40.38
2016-05-17T11:22:43.012Z,40.19
2016-05-17T11:23:43.062Z,40.19
2016-05-17T11:24:43.111Z,40.29
2016-05-17T11:25:43.146Z,40.29
2016-05-17T11:26:43.211Z,40.29
2016-05-17T11:27:43.260Z,40.38
2016-05-17T11:28:43.310Z,40.29
2016-05-17T11:29:43.359Z,40.38
2016-05-17T11:30:43.424Z,40.38
2016-05-17T11:31:43.458Z,40.19
2016-05-17T11:32:43.508Z,40.58
2016-05-17T11:33:43.542Z,40.38
2016-05-17T11:34:43.607Z,40.09
2016-05-17T11:35:43.657Z,39.9
2016-05-17T11:36:43.690Z,40.09
2016-05-17T11:37:43.770Z,40.29
2016-05-17T11:38:43.806Z,40.09
2016-05-17T11:39:43.854Z,40.19
2016-05-17T11:40:43.904Z,40.29
2016-05-17T11:41:43.798Z,40.29
2016-05-17T11:42:44.003Z,40.09
2016-05-17T11:43:44.053Z,40.58
2016-05-17T11:44:44.102Z,40.48
2016-05-17T11:45:44.152Z,40.29
2016-05-17T11:46:44.202Z,40.58
2016-05-17T11:47:44.251Z,40.29
2016-05-17T11:48:44.300Z,40.19
2016-05-17T11:49:44.350Z,40.09
2016-05-17T11:50:44.384Z,40.19
2016-05-17T11:51:44.433Z,40.19
2016-05-17T11:52:44.483Z,40.29
2016-05-17T11:53:44.533Z,40
2016-05-17T11:54:44.582Z,40.09
2016-05-17T11:55:44.476Z,40.48
2016-05-17T11:56:44.697Z,40.29
2016-05-17T11:57:44.746Z,40.38
2016-05-17T11:58:44.781Z,40.67
2016-05-17T11:59:44.847Z,40.58
2016-05-17T12:00:44.895Z,40.58
2016-05-17T12:01:44.945Z,40.58
2016-05-17T12:02:44.995Z,40.58
2016-05-17T12:03:45.044Z,40.58
2016-05-17T12:04:45.093Z,40.48
2016-05-17T12:05:45.144Z,40.48
2016-05-17T12:06:45.177Z,40.48
2016-05-17T12:07:45.226Z,40.48
2016-05-17T12:08:45.276Z,40.48
2016-05-17T12:09:45.310Z,40.38
2016-05-17T12:10:45.375Z,40.29
2016-05-17T12:11:45.440Z,40.38
2016-05-17T12:12:45.318Z,40.58
2016-05-17T12:13:45.525Z,40.38
2016-05-17T12:14:45.589Z,40.58
2016-05-17T12:15:45.467Z,40.58
2016-05-17T12:16:45.689Z,40.58
2016-05-17T12:17:45.706Z,40.38
2016-05-17T12:18:45.756Z,40.38
2016-05-17T12:19:45.837Z,40.38
2016-05-17T12:20:45.872Z,40.38
2016-05-17T12:21:46.467Z,40.95
2016-05-17T12:22:45.970Z,40.19
2016-05-17T12:23:46.019Z,40.95
2016-05-17T12:24:45.913Z,40.86
2016-05-17T12:25:46.135Z,40.29
2016-05-17T12:26:46.169Z,40.38
2016-05-17T12:27:46.062Z,40.48
2016-05-17T12:28:46.283Z,40.38
2016-05-17T12:29:46.318Z,40.29
2016-05-17T12:30:46.367Z,40.48
2016-05-17T12:31:46.416Z,40.48
2016-05-17T12:32:46.451Z,40.77
2016-05-17T12:33:46.516Z,40.48
2016-05-17T12:34:46.565Z,40.48
2016-05-17T12:35:46.459Z,40.48
2016-05-17T12:36:46.898Z,40.77
2016-05-17T12:37:46.714Z,40.86
2016-05-17T12:38:46.763Z,40.77
2016-05-17T12:39:46.657Z,40.95
2016-05-17T12:40:46.862Z,40.38
2016-05-17T12:41:46.912Z,40.19
2016-05-17T12:42:46.946Z,41.05
2016-05-17T12:43:46.840Z,40.58
2016-05-17T12:44:47.061Z,40.38
2016-05-17T12:45:47.111Z,40.48
2016-05-17T12:46:47.160Z,40.48
2016-05-17T12:47:47.209Z,40.48
2016-05-17T12:48:47.258Z,40.19
2016-05-17T12:49:47.308Z,40.95
2016-05-17T12:50:47.358Z,40.77
2016-05-17T12:51:47.408Z,40.48
2016-05-17T12:52:47.457Z,40.38
2016-05-17T12:53:47.507Z,40.38
2016-05-17T12:54:47.541Z,40.38
2016-05-17T12:55:47.606Z,41.05